Time;durP1;ratioP1;P1;durP2;ratioP2;P2;SDS_P1;SDS_P2;PMS_P1;PMS_P2;Temp;Humidity;BMP_temperature;BMP_pressure;BME280_temperature;BME280_humidity;BME280_pressure;Samples;Min_cycle;Max_cycle;Signal;HPM_P1;HPM_P2
2023/10/22 00:01:04;;;;;;;0.00;0.00;;;;;;;17.22;88.00;99491.31;5110181;28;20030;-67
2023/10/22 00:03:30;;;;;;;0.00;0.00;;;;;;;17.74;84.74;99487.34;5111426;28;20028;-67
2023/10/22 00:05:55;;;;;;;0.10;0.10;;;;;;;17.55;86.11;99481.47;5092689;28;20032;-67
2023/10/22 00:08:21;;;;;;;0.10;0.10;;;;;;;18.07;81.93;99491.50;5071547;28;20681;-67
2023/10/22 00:10:46;;;;;;;0.00;0.00;;;;;;;17.69;84.55;99494.69;5084045;28;20403;-67
2023/10/22 00:13:11;;;;;;;0.00;0.00;;;;;;;16.96;88.51;99512.16;5071629;28;20364;-67
2023/10/22 00:15:37;;;;;;;0.00;0.00;;;;;;;16.97;87.82;99510.38;5074983;28;20148;-67
2023/10/22 00:18:02;;;;;;;0.05;0.05;;;;;;;17.18;87.78;99512.72;5097771;28;20019;-67
2023/10/22 00:20:28;;;;;;;0.00;0.00;;;;;;;17.61;85.10;99512.78;5094820;28;20482;-67
2023/10/22 00:22:53;;;;;;;0.00;0.00;;;;;;;17.22;87.80;99527.44;5095724;28;20115;-67
2023/10/22 00:25:18;;;;;;;0.00;0.00;;;;;;;17.54;88.35;99516.75;5094597;28;20059;-67
2023/10/22 00:27:44;;;;;;;0.00;0.00;;;;;;;17.24;89.18;99530.81;5111219;28;20059;-66
2023/10/22 00:30:09;;;;;;;0.00;0.00;;;;;;;17.20;90.35;99538.09;5091017;28;20028;-67
2023/10/22 00:32:35;;;;;;;0.10;0.10;;;;;;;17.80;88.08;99534.53;5094739;28;20023;-66
2023/10/22 00:35:01;;;;;;;0.00;0.00;;;;;;;18.15;85.42;99533.34;5075208;28;20031;-67
2023/10/22 00:37:27;;;;;;;0.00;0.00;;;;;;;16.58;92.90;99540.69;5076409;28;20106;-68
2023/10/22 00:39:52;;;;;;;0.00;0.00;;;;;;;17.54;90.05;99538.72;5093958;28;20107;-66
2023/10/22 00:42:20;;;;;;;0.00;0.00;;;;;;;17.56;86.29;99531.56;5095455;28;20074;-67
2023/10/22 00:44:46;;;;;;;0.63;0.63;;;;;;;17.30;92.08;99559.53;5096481;28;20058;-67
2023/10/22 00:47:14;;;;;;;0.00;0.00;;;;;;;18.34;85.92;99541.00;5096091;28;20139;-67
2023/10/22 00:49:39;;;;;;;0.00;0.00;;;;;;;18.24;85.22;99547.78;5092818;28;20542;-67
2023/10/22 00:52:05;;;;;;;0.00;0.00;;;;;;;17.65;86.64;99564.50;5089874;28;20111;-67
2023/10/22 00:54:30;;;;;;;0.00;0.00;;;;;;;18.00;86.19;99566.88;5094324;28;20433;-67
2023/10/22 00:56:57;;;;;;;0.00;0.00;;;;;;;18.28;84.26;99562.50;5099281;28;20107;-67
2023/10/22 00:59:23;;;;;;;0.00;0.00;;;;;;;17.78;87.66;99576.06;5094109;28;20103;-67
2023/10/22 01:01:49;;;;;;;0.00;0.00;;;;;;;17.81;84.43;99578.50;5075450;28;20025;-67
2023/10/22 01:04:14;;;;;;;0.00;0.00;;;;;;;18.36;84.06;99573.47;5109088;28;20101;-67
2023/10/22 01:06:40;;;;;;;0.00;0.00;;;;;;;17.88;86.28;99584.28;5114312;28;20016;-67
2023/10/22 01:09:10;;;;;;;0.10;0.10;;;;;;;17.53;89.87;99594.31;5088018;28;20024;-67
2023/10/22 01:11:38;;;;;;;0.00;0.00;;;;;;;18.08;87.79;99582.25;5074590;28;20028;-67
2023/10/22 01:14:03;;;;;;;1.65;1.45;;;;;;;18.49;83.20;99589.41;5093245;28;20038;-67
2023/10/22 01:16:29;;;;;;;0.00;0.00;;;;;;;18.05;84.77;99596.53;5093606;28;20099;-67
2023/10/22 01:18:54;;;;;;;0.00;0.00;;;;;;;18.14;86.59;99601.22;5083728;28;20023;-67
2023/10/22 01:21:24;;;;;;;0.20;0.20;;;;;;;18.11;87.20;99612.00;5094975;28;20120;-67
2023/10/22 01:23:49;;;;;;;0.13;0.13;;;;;;;16.95;93.31;99620.47;5094869;28;20028;-67
2023/10/22 01:26:15;;;;;;;0.00;0.00;;;;;;;17.90;89.96;99607.97;5084978;28;20024;-67
2023/10/22 01:28:40;;;;;;;0.00;0.00;;;;;;;17.34;93.18;99616.50;5104375;28;20021;-67
2023/10/22 01:31:10;;;;;;;0.00;0.00;;;;;;;17.74;94.10;99635.31;5073907;28;20024;-67
2023/10/22 01:33:35;;;;;;;0.00;0.00;;;;;;;18.28;89.48;99623.34;5093185;28;20032;-67
2023/10/22 01:36:01;;;;;;;0.00;0.00;;;;;;;18.97;83.62;99627.00;5074770;28;20020;-68
2023/10/22 01:38:26;;;;;;;0.00;0.00;;;;;;;18.58;84.42;99635.63;5092763;28;20024;-68
2023/10/22 01:40:52;;;;;;;0.00;0.00;;;;;;;18.44;86.13;99639.97;5074778;28;20441;-67
2023/10/22 01:43:17;;;;;;;0.00;0.00;;;;;;;18.77;86.75;99638.81;5087968;28;20040;-68
2023/10/22 01:45:42;;;;;;;0.00;0.00;;;;;;;18.80;84.53;99641.25;5086100;28;20103;-68
2023/10/22 01:48:08;;;;;;;0.00;0.00;;;;;;;18.71;85.89;99646.28;5108995;28;20114;-68
2023/10/22 01:50:33;;;;;;;0.00;0.00;;;;;;;18.62;86.70;99658.31;5095361;28;20053;-68
2023/10/22 01:52:59;;;;;;;0.00;0.00;;;;;;;18.79;87.95;99650.16;5094051;28;20035;-67
2023/10/22 01:55:24;;;;;;;0.00;0.00;;;;;;;18.59;88.03;99663.81;5093071;28;20115;-68
2023/10/22 01:57:49;;;;;;;0.00;0.00;;;;;;;18.95;85.00;99662.47;5094269;28;20034;-68
2023/10/22 02:00:17;;;;;;;0.00;0.00;;;;;;;18.62;88.80;99684.78;5091784;28;20383;-67
2023/10/22 02:02:42;;;;;;;0.00;0.00;;;;;;;18.05;93.05;99704.94;5113174;28;20015;-67
2023/10/22 02:05:08;;;;;;;0.00;0.00;;;;;;;17.79;94.75;99704.63;5091073;28;20391;-67
2023/10/22 02:07:35;;;;;;;0.00;0.00;;;;;;;17.37;100.00;99721.13;5083251;28;20028;-67
2023/10/22 02:10:01;;;;;;;0.90;0.15;;;;;;;18.18;98.25;99728.84;5074190;28;20038;-67
2023/10/22 02:12:29;;;;;;;0.00;0.00;;;;;;;17.74;99.89;99733.09;5074792;28;20024;-68
2023/10/22 02:14:56;;;;;;;0.00;0.00;;;;;;;17.45;100.00;99746.16;5076024;28;20019;-67
2023/10/22 02:17:21;;;;;;;0.00;0.00;;;;;;;18.08;96.10;99756.75;5097722;28;20024;-68
2023/10/22 02:19:47;;;;;;;0.00;0.00;;;;;;;18.28;92.66;99756.44;5073733;28;20061;-68
2023/10/22 02:22:12;;;;;;;0.00;0.00;;;;;;;18.12;93.19;99764.44;5073948;28;20562;-68
2023/10/22 02:24:39;;;;;;;0.00;0.00;;;;;;;18.37;92.16;99776.22;5074651;28;20031;-68
2023/10/22 02:27:05;;;;;;;0.00;0.00;;;;;;;17.51;94.49;99787.22;5093292;28;20026;-67
2023/10/22 02:29:30;;;;;;;0.00;0.00;;;;;;;17.85;95.16;99800.38;5083656;28;20028;-67
2023/10/22 02:31:55;;;;;;;0.00;0.00;;;;;;;18.13;92.80;99810.22;5099657;28;20386;-67
2023/10/22 02:34:21;;;;;;;0.13;0.13;;;;;;;18.16;95.63;99811.84;5093781;28;20027;-68
2023/10/22 02:36:46;;;;;;;0.00;0.00;;;;;;;18.27;89.59;99822.66;5098579;28;20453;-68
2023/10/22 02:39:12;;;;;;;0.00;0.00;;;;;;;18.02;91.35;99828.50;5109817;28;20452;-68
2023/10/22 02:41:37;;;;;;;0.00;0.00;;;;;;;18.68;91.06;99831.75;5093452;28;20040;-67
2023/10/22 02:44:04;;;;;;;0.00;0.00;;;;;;;18.93;87.91;99847.91;5093793;28;20073;-68
2023/10/22 02:46:29;;;;;;;0.00;0.00;;;;;;;18.23;87.24;99864.31;5090128;28;20020;-68
2023/10/22 02:48:55;;;;;;;0.00;0.00;;;;;;;17.37;93.88;99877.81;5111184;28;20382;-68
2023/10/22 02:51:22;;;;;;;0.00;0.00;;;;;;;17.13;96.93;99890.50;5093630;28;20100;-67
2023/10/22 02:53:47;;;;;;;0.00;0.00;;;;;;;17.16;95.36;99902.69;5093900;28;20028;-68
2023/10/22 02:56:13;;;;;;;0.45;0.45;;;;;;;16.86;97.84;99911.25;5080721;28;20024;-67
2023/10/22 02:58:38;;;;;;;0.00;0.00;;;;;;;16.82;95.46;99920.25;5094214;28;20027;-68
2023/10/22 03:01:05;;;;;;;1.80;0.40;;;;;;;17.54;94.71;99928.88;5090768;28;20024;-68
2023/10/22 03:03:31;;;;;;;0.05;0.05;;;;;;;17.06;94.04;99924.31;5072945;28;20069;-67
2023/10/22 03:06:00;;;;;;;0.00;0.00;;;;;;;17.44;90.88;99944.38;5072197;28;20028;-68
2023/10/22 03:08:26;;;;;;;0.52;0.52;;;;;;;17.34;91.12;99943.13;5075021;28;20039;-67
2023/10/22 03:10:51;;;;;;;0.10;0.10;;;;;;;17.61;88.47;99946.09;5110880;28;20023;-67
2023/10/22 03:13:17;;;;;;;0.17;0.17;;;;;;;17.65;89.64;99958.22;5093746;28;20027;-68
2023/10/22 03:15:42;;;;;;;0.00;0.00;;;;;;;16.61;91.79;99962.59;5091320;28;20476;-67
2023/10/22 03:18:07;;;;;;;0.10;0.10;;;;;;;16.94;89.21;99975.09;5091519;28;20016;-68
2023/10/22 03:20:33;;;;;;;0.05;0.05;;;;;;;16.21;96.62;99977.69;5091714;28;20095;-67
2023/10/22 03:23:01;;;;;;;0.00;0.00;;;;;;;16.18;94.56;99983.09;5092411;28;20479;-67
2023/10/22 03:25:27;;;;;;;0.00;0.00;;;;;;;17.90;84.88;99981.56;5110753;28;20035;-68
2023/10/22 03:27:52;;;;;;;0.00;0.00;;;;;;;17.69;83.62;99980.91;5080834;28;20028;-68
2023/10/22 03:30:18;;;;;;;0.52;0.52;;;;;;;17.23;84.59;99988.59;5072663;28;20046;-67
2023/10/22 03:32:44;;;;;;;0.00;0.00;;;;;;;17.12;83.01;99997.91;5081394;28;20051;-67
2023/10/22 03:35:10;;;;;;;0.00;0.00;;;;;;;17.28;85.08;100003.28;5072831;28;20058;-68
2023/10/22 03:37:35;;;;;;;0.00;0.00;;;;;;;16.98;84.02;100005.69;5091421;28;20121;-68
2023/10/22 03:40:01;;;;;;;0.00;0.00;;;;;;;17.32;81.48;100013.69;5090160;28;20023;-68
2023/10/22 03:42:27;;;;;;;0.00;0.00;;;;;;;17.68;81.68;100021.50;5076098;28;20068;-68
2023/10/22 03:44:52;;;;;;;0.00;0.00;;;;;;;18.31;77.58;100014.63;5091341;28;20024;-67
2023/10/22 03:47:18;;;;;;;0.00;0.00;;;;;;;17.64;80.66;100027.88;5078257;28;20024;-68
2023/10/22 03:49:43;;;;;;;0.00;0.00;;;;;;;17.37;78.56;100038.91;5093659;28;20023;-68
2023/10/22 03:52:09;;;;;;;1.50;1.20;;;;;;;18.67;74.62;100026.75;5097878;28;20490;-68
2023/10/22 03:54:34;;;;;;;0.13;0.13;;;;;;;17.83;78.29;100048.03;5080323;28;20032;-68
2023/10/22 03:57:00;;;;;;;0.00;0.00;;;;;;;18.68;74.25;100049.63;5098658;28;20035;-68
2023/10/22 03:59:25;;;;;;;0.00;0.00;;;;;;;18.60;72.25;100057.13;5099219;28;20034;-68
2023/10/22 04:01:52;;;;;;;0.00;0.00;;;;;;;17.90;75.35;100065.28;5089877;28;20027;-68
2023/10/22 04:04:17;;;;;;;0.00;0.00;;;;;;;17.92;74.44;100072.22;5085935;28;20485;-68
2023/10/22 04:06:43;;;;;;;0.00;0.00;;;;;;;17.85;75.05;100085.84;5097003;28;20028;-68
2023/10/22 04:09:08;;;;;;;0.00;0.00;;;;;;;17.33;76.28;100086.72;5097187;28;20028;-68
2023/10/22 04:11:33;;;;;;;0.20;0.20;;;;;;;18.09;72.25;100079.28;5081842;28;20046;-68
2023/10/22 04:13:59;;;;;;;0.00;0.00;;;;;;;18.51;72.54;100089.41;5085241;28;20115;-68
2023/10/22 04:16:24;;;;;;;0.00;0.00;;;;;;;18.00;72.37;100100.03;5097627;28;20478;-68
2023/10/22 04:18:49;;;;;;;0.00;0.00;;;;;;;18.88;69.48;100103.28;5079604;28;20471;-68
2023/10/22 04:21:15;;;;;;;0.00;0.00;;;;;;;17.53;75.06;100112.09;5078297;28;20099;-68
2023/10/22 04:23:40;;;;;;;0.00;0.00;;;;;;;18.41;71.71;100121.66;5079027;28;20054;-68
2023/10/22 04:26:15;;;;;;;0.03;0.03;;;;;;;17.97;74.84;100128.38;5078761;28;20543;-68
2023/10/22 04:28:45;;;;;;;0.00;0.00;;;;;;;18.65;70.32;100134.50;5079396;28;20084;-68
2023/10/22 04:31:10;;;;;;;0.00;0.00;;;;;;;18.99;69.39;100132.66;5095444;28;20039;-67
2023/10/22 04:33:36;;;;;;;0.00;0.00;;;;;;;19.29;67.39;100137.16;5103204;28;20027;-67
2023/10/22 04:36:02;;;;;;;0.35;0.35;;;;;;;18.44;71.68;100141.81;5117543;28;20019;-67
2023/10/22 04:38:28;;;;;;;0.00;0.00;;;;;;;18.53;71.86;100141.28;5099651;28;20023;-68
2023/10/22 04:40:53;;;;;;;0.00;0.00;;;;;;;18.43;72.19;100146.22;5097621;28;20378;-68
2023/10/22 04:43:18;;;;;;;0.00;0.00;;;;;;;17.03;78.28;100159.41;5094679;28;20075;-67
2023/10/22 04:45:51;;;;;;;0.00;0.00;;;;;;;18.16;73.24;100142.41;5095658;28;20020;-68
2023/10/22 04:48:16;;;;;;;0.10;0.10;;;;;;;17.16;78.17;100161.47;5095670;28;20024;-67
2023/10/22 04:50:44;;;;;;;0.00;0.00;;;;;;;17.15;80.31;100159.78;5089221;28;20035;-67
2023/10/22 04:53:10;;;;;;;0.00;0.00;;;;;;;17.48;79.81;100166.97;5091613;28;20040;-67
2023/10/22 04:55:35;;;;;;;0.00;0.00;;;;;;;17.40;81.24;100176.13;5079841;28;20094;-68
2023/10/22 04:58:02;;;;;;;0.00;0.00;;;;;;;16.73;83.21;100190.69;5076863;28;20036;-68
2023/10/22 05:00:27;;;;;;;0.00;0.00;;;;;;;16.56;84.50;100188.84;5075638;28;20077;-67
2023/10/22 05:02:53;;;;;;;0.00;0.00;;;;;;;17.07;85.69;100195.28;5072389;28;20032;-67
2023/10/22 05:05:19;;;;;;;0.00;0.00;;;;;;;17.46;79.06;100181.13;5093088;28;20038;-67
2023/10/22 05:07:45;;;;;;;0.00;0.00;;;;;;;17.29;77.46;100183.72;5093866;28;20520;-68
2023/10/22 05:10:10;;;;;;;0.10;0.10;;;;;;;16.71;79.61;100188.13;5092123;28;20035;-67
2023/10/22 05:12:36;;;;;;;0.10;0.10;;;;;;;17.46;79.59;100191.69;5092533;28;20085;-67
2023/10/22 05:15:01;;;;;;;0.00;0.00;;;;;;;18.33;73.12;100192.66;5075397;28;20478;-67
2023/10/22 05:17:27;;;;;;;0.00;0.00;;;;;;;18.37;70.54;100188.91;5071171;28;20028;-68
2023/10/22 05:19:52;;;;;;;0.00;0.00;;;;;;;17.66;75.31;100191.63;5073159;28;20028;-68
2023/10/22 05:22:17;;;;;;;0.00;0.00;;;;;;;18.25;72.18;100194.84;5078596;28;20048;-67
2023/10/22 05:24:48;;;;;;;0.00;0.00;;;;;;;18.04;71.22;100195.00;5081707;28;20067;-68
2023/10/22 05:27:13;;;;;;;0.00;0.00;;;;;;;17.83;71.63;100211.94;5092572;28;20028;-67
2023/10/22 05:29:38;;;;;;;0.00;0.00;;;;;;;18.29;69.67;100206.97;5091347;28;20028;-68
2023/10/22 05:32:04;;;;;;;0.00;0.00;;;;;;;17.90;72.28;100218.59;5079383;28;20060;-68
2023/10/22 05:34:31;;;;;;;0.00;0.00;;;;;;;18.73;69.81;100222.28;5081884;28;20315;-68
2023/10/22 05:36:57;;;;;;;0.00;0.00;;;;;;;18.34;72.43;100226.09;5089917;28;20032;-68
2023/10/22 05:39:22;;;;;;;0.00;0.00;;;;;;;18.18;71.41;100231.31;5092202;28;20123;-68
2023/10/22 05:41:47;;;;;;;0.00;0.00;;;;;;;18.43;70.75;100236.19;5067427;28;20049;-67
2023/10/22 05:44:13;;;;;;;0.22;0.22;;;;;;;17.51;74.32;100251.38;5052512;28;20029;-68
2023/10/22 05:46:38;;;;;;;1.90;0.57;;;;;;;17.94;73.25;100249.28;5055284;28;20441;-68
2023/10/22 05:49:04;;;;;;;0.00;0.00;;;;;;;17.98;75.01;100256.13;5070208;28;20028;-68
2023/10/22 05:51:30;;;;;;;0.00;0.00;;;;;;;18.73;70.08;100251.38;5069307;28;20400;-67
2023/10/22 05:53:55;;;;;;;0.00;0.00;;;;;;;18.35;70.32;100253.41;5071009;28;20043;-68
2023/10/22 05:56:23;;;;;;;0.10;0.10;;;;;;;18.29;74.21;100259.88;5072395;28;20487;-67
2023/10/22 05:58:48;;;;;;;0.25;0.25;;;;;;;17.29;77.55;100278.78;5069673;28;20027;-68
2023/10/22 06:01:14;;;;;;;0.00;0.00;;;;;;;17.43;80.47;100281.66;5065865;28;20024;-67
2023/10/22 06:03:39;;;;;;;0.00;0.00;;;;;;;17.09;81.47;100291.16;5051505;28;20029;-68
2023/10/22 06:06:04;;;;;;;0.00;0.00;;;;;;;17.69;79.59;100290.09;5051915;28;20029;-68
2023/10/22 06:08:30;;;;;;;0.00;0.00;;;;;;;16.95;83.98;100293.53;5051431;28;20120;-67
2023/10/22 06:10:55;;;;;;;0.00;0.00;;;;;;;17.10;80.67;100295.50;5051029;28;20408;-67
2023/10/22 06:13:21;;;;;;;0.00;0.00;;;;;;;17.67;77.56;100296.38;5049244;28;20074;-67
2023/10/22 06:15:46;;;;;;;0.00;0.00;;;;;;;17.31;78.97;100303.38;5052550;28;20119;-67
2023/10/22 06:18:12;;;;;;;0.00;0.00;;;;;;;17.56;79.72;100307.50;5070743;28;20472;-68
2023/10/22 06:20:38;;;;;;;0.25;0.25;;;;;;;17.73;77.49;100304.88;5054619;28;20024;-67
2023/10/22 06:23:04;;;;;;;0.00;0.00;;;;;;;17.61;76.33;100316.03;5065000;28;20143;-67
2023/10/22 06:25:34;;;;;;;0.30;0.30;;;;;;;17.78;73.21;100316.09;5071095;28;20086;-67
2023/10/22 06:28:00;;;;;;;0.05;0.05;;;;;;;17.34;77.15;100324.34;5052469;28;20025;-68
2023/10/22 06:30:27;;;;;;;0.00;0.00;;;;;;;17.46;73.91;100317.63;5060221;28;20024;-67
2023/10/22 06:32:54;;;;;;;0.47;0.47;;;;;;;17.03;75.38;100328.38;5051160;28;20032;-67
2023/10/22 06:35:20;;;;;;;0.00;0.00;;;;;;;16.87;79.00;100335.22;5047723;28;20497;-67
2023/10/22 06:37:53;;;;;;;0.00;0.00;;;;;;;17.33;74.57;100343.75;5054240;28;20021;-68
2023/10/22 06:40:19;;;;;;;0.00;0.00;;;;;;;17.67;75.17;100341.31;5054334;28;20028;-67
2023/10/22 06:42:46;;;;;;;0.10;0.10;;;;;;;17.12;77.27;100369.38;5094307;28;20043;-67
2023/10/22 06:45:12;;;;;;;0.10;0.10;;;;;;;17.16;77.48;100372.72;5112533;28;20399;-67
2023/10/22 06:47:37;;;;;;;0.00;0.00;;;;;;;17.30;77.54;100380.88;5093428;28;20023;-68
2023/10/22 06:50:07;;;;;;;0.00;0.00;;;;;;;17.39;77.23;100379.59;5093749;28;20047;-67
2023/10/22 06:52:33;;;;;;;0.00;0.00;;;;;;;17.64;75.65;100388.13;5109854;28;20034;-67
2023/10/22 06:54:59;;;;;;;0.00;0.00;;;;;;;17.83;73.18;100387.22;5108754;28;20023;-68
2023/10/22 06:57:24;;;;;;;0.17;0.10;;;;;;;17.68;72.04;100391.47;5073970;28;20030;-68
2023/10/22 06:59:55;;;;;;;0.00;0.00;;;;;;;17.86;72.17;100394.16;5092065;28;20031;-67
2023/10/22 07:02:22;;;;;;;0.00;0.00;;;;;;;17.73;74.33;100410.59;5072999;28;20490;-68
2023/10/22 07:04:51;;;;;;;0.00;0.00;;;;;;;16.26;81.17;100418.69;5088146;28;20024;-68
2023/10/22 07:07:16;;;;;;;0.00;0.00;;;;;;;16.79;82.02;100415.59;5090273;28;20502;-67
2023/10/22 07:09:42;;;;;;;0.00;0.00;;;;;;;17.21;78.41;100412.97;5092343;28;20219;-67
2023/10/22 07:12:08;;;;;;;0.00;0.00;;;;;;;17.10;76.89;100422.25;5111592;28;20098;-68
2023/10/22 07:14:33;;;;;;;0.15;0.15;;;;;;;17.23;75.76;100421.72;5110955;28;20516;-69
2023/10/22 07:16:58;;;;;;;0.00;0.00;;;;;;;16.87;76.44;100430.25;5110878;28;20517;-68
2023/10/22 07:19:24;;;;;;;0.00;0.00;;;;;;;17.24;76.03;100441.88;5093283;28;20475;-67
2023/10/22 07:21:49;;;;;;;0.00;0.00;;;;;;;17.65;73.63;100441.81;5093679;28;20023;-68
2023/10/22 07:24:14;;;;;;;0.10;0.10;;;;;;;17.36;75.62;100438.69;5099465;28;20032;-67
2023/10/22 07:26:40;;;;;;;0.00;0.00;;;;;;;17.13;75.10;100448.50;5111975;28;20031;-67
2023/10/22 07:29:05;;;;;;;0.00;0.00;;;;;;;16.98;75.25;100451.81;5082521;28;20692;-67
2023/10/22 07:31:31;;;;;;;0.00;0.00;;;;;;;17.04;74.70;100454.19;5097242;28;20028;-68
2023/10/22 07:33:56;;;;;;;1.00;0.97;;;;;;;17.29;74.90;100458.41;5087961;28;20124;-67
2023/10/22 07:36:22;;;;;;;0.10;0.10;;;;;;;17.02;77.38;100466.59;5091226;28;20092;-68
2023/10/22 07:38:51;;;;;;;0.00;0.00;;;;;;;17.00;77.03;100472.88;5101392;28;20028;-67
2023/10/22 07:41:17;;;;;;;0.00;0.00;;;;;;;17.25;75.46;100475.31;5107516;28;20122;-67
2023/10/22 07:43:43;;;;;;;2.13;0.67;;;;;;;16.28;79.26;100474.88;5087882;28;20040;-67
2023/10/22 07:46:10;;;;;;;0.00;0.00;;;;;;;16.86;80.43;100486.63;5072732;28;20225;-68
2023/10/22 07:48:36;;;;;;;0.00;0.00;;;;;;;16.90;79.62;100493.53;5077291;28;20072;-67
2023/10/22 07:51:15;;;;;;;0.00;0.00;;;;;;;17.25;76.19;100492.00;5092194;28;20103;-68
2023/10/22 07:53:41;;;;;;;0.00;0.00;;;;;;;17.80;75.71;100486.06;5092569;28;20407;-68
2023/10/22 07:56:07;;;;;;;0.10;0.10;;;;;;;17.86;72.57;100490.22;5110822;28;20069;-67
2023/10/22 07:58:32;;;;;;;0.00;0.00;;;;;;;17.69;75.03;100498.88;5084446;28;20073;-68
2023/10/22 08:00:59;;;;;;;0.00;0.00;;;;;;;18.48;72.24;100505.88;5072494;28;20020;-68
2023/10/22 08:03:26;;;;;;;0.00;0.00;;;;;;;17.94;71.29;100503.97;5072789;28;20097;-67
2023/10/22 08:05:52;;;;;;;0.00;0.00;;;;;;;18.28;70.67;100509.47;5073513;28;20407;-68
2023/10/22 08:08:17;;;;;;;0.00;0.00;;;;;;;17.93;71.99;100511.97;5092484;28;20019;-68
2023/10/22 08:10:42;;;;;;;0.00;0.00;;;;;;;18.00;71.09;100508.13;5100970;28;20058;-68
2023/10/22 08:13:08;;;;;;;0.00;0.00;;;;;;;18.24;69.78;100515.81;5069886;28;20024;-67
2023/10/22 08:15:34;;;;;;;0.00;0.00;;;;;;;17.93;71.77;100517.25;5090780;28;20039;-67
2023/10/22 08:17:59;;;;;;;0.05;0.05;;;;;;;17.93;72.57;100520.75;5072046;28;20024;-67
2023/10/22 08:20:25;;;;;;;0.10;0.10;;;;;;;18.70;68.42;100518.91;5094351;28;20024;-69
2023/10/22 08:22:50;;;;;;;0.05;0.05;;;;;;;18.26;68.06;100524.56;5107282;28;20106;-67
2023/10/22 08:25:15;;;;;;;0.00;0.00;;;;;;;18.18;70.47;100524.06;5075174;28;20054;-67
2023/10/22 08:27:41;;;;;;;0.00;0.00;;;;;;;18.21;70.45;100531.84;5071308;28;20110;-67
2023/10/22 08:30:06;;;;;;;0.10;0.10;;;;;;;17.59;73.53;100524.03;5078663;28;20020;-68
2023/10/22 08:32:35;;;;;;;0.00;0.00;;;;;;;18.31;69.35;100527.81;5091862;28;20038;-68
2023/10/22 08:35:04;;;;;;;0.00;0.00;;;;;;;17.90;71.52;100520.00;5098007;28;20056;-68
2023/10/22 08:37:30;;;;;;;0.00;0.00;;;;;;;17.85;74.03;100519.38;5092950;28;20077;-67
2023/10/22 08:39:55;;;;;;;0.00;0.00;;;;;;;18.41;71.41;100539.72;5076791;28;20028;-68
2023/10/22 08:42:23;;;;;;;0.00;0.00;;;;;;;18.68;72.04;100539.28;5075865;28;20075;-67
2023/10/22 08:44:49;;;;;;;0.10;0.10;;;;;;;18.83;68.87;100543.00;5077007;28;20556;-68
2023/10/22 08:47:16;;;;;;;0.00;0.00;;;;;;;19.24;65.21;100544.53;5094359;28;21509;-68
2023/10/22 08:49:41;;;;;;;0.03;0.03;;;;;;;18.47;69.56;100552.63;5088484;28;20497;-67
2023/10/22 08:52:08;;;;;;;0.10;0.10;;;;;;;19.00;70.06;100552.81;5093397;28;20016;-68
2023/10/22 08:54:34;;;;;;;0.00;0.00;;;;;;;18.51;68.88;100556.00;5075207;28;20034;-68
2023/10/22 08:56:59;;;;;;;0.00;0.00;;;;;;;19.82;65.53;100552.16;5075560;28;20016;-67
2023/10/22 08:59:25;;;;;;;0.00;0.00;;;;;;;18.84;69.04;100557.09;5075349;28;20028;-67
2023/10/22 09:01:51;;;;;;;0.00;0.00;;;;;;;18.40;70.94;100561.78;5095410;28;20032;-67
2023/10/22 09:04:17;;;;;;;0.00;0.00;;;;;;;19.17;68.39;100565.19;5077816;28;20031;-68
2023/10/22 09:06:42;;;;;;;0.00;0.00;;;;;;;18.56;69.43;100574.28;5092695;28;20020;-68
2023/10/22 09:09:08;;;;;;;0.00;0.00;;;;;;;18.02;71.53;100582.94;5097094;28;20038;-67
2023/10/22 09:11:35;;;;;;;0.00;0.00;;;;;;;18.04;72.53;100583.72;5075057;28;20081;-67
2023/10/22 09:14:00;;;;;;;0.00;0.00;;;;;;;17.81;72.02;100588.22;5084725;28;20450;-67
2023/10/22 09:16:39;;;;;;;0.25;0.25;;;;;;;17.63;73.64;100589.88;5080511;28;20019;-68
2023/10/22 09:19:04;;;;;;;0.00;0.00;;;;;;;19.05;70.23;100597.59;5105570;28;20031;-68
2023/10/22 09:21:43;;;;;;;0.00;0.00;;;;;;;18.67;69.58;100600.25;5089464;28;20046;-67
2023/10/22 09:24:09;;;;;;;0.00;0.00;;;;;;;18.19;71.65;100602.47;5080026;28;20411;-67
2023/10/22 09:26:43;;;;;;;0.00;0.00;;;;;;;18.35;72.11;100600.84;5093016;28;20035;-67
2023/10/22 09:29:08;;;;;;;0.00;0.00;;;;;;;19.67;66.45;100595.34;5093337;28;20505;-67
2023/10/22 09:31:34;;;;;;;0.10;0.10;;;;;;;19.08;65.91;100608.03;5089327;28;20023;-67
2023/10/22 09:33:59;;;;;;;0.00;0.00;;;;;;;19.03;68.89;100610.03;5079858;28;20039;-67
2023/10/22 09:36:25;;;;;;;0.05;0.05;;;;;;;19.44;64.57;100615.06;5093816;28;20028;-68
2023/10/22 09:38:52;;;;;;;0.65;0.65;;;;;;;19.05;66.43;100624.91;5094300;28;20027;-67
2023/10/22 09:41:23;;;;;;;0.00;0.00;;;;;;;19.93;64.01;100617.03;5088295;28;20031;-68
2023/10/22 09:43:59;;;;;;;0.30;0.30;;;;;;;20.35;62.60;100613.00;5061014;28;20105;-67
2023/10/22 09:46:29;;;;;;;0.00;0.00;;;;;;;20.59;61.04;100604.63;5075759;28;20123;-67
2023/10/22 09:48:57;;;;;;;0.00;0.00;;;;;;;19.76;61.04;100621.38;5077960;28;20485;-67
2023/10/22 09:51:23;;;;;;;0.00;0.00;;;;;;;20.33;61.18;100612.22;5074172;28;20043;-67
2023/10/22 09:53:53;;;;;;;0.00;0.00;;;;;;;19.93;60.84;100622.31;5076058;28;20032;-67
2023/10/22 09:56:21;;;;;;;0.00;0.00;;;;;;;20.86;58.39;100620.00;5073745;28;20058;-67
2023/10/22 09:58:49;;;;;;;0.00;0.00;;;;;;;20.33;59.47;100630.81;5083728;28;20023;-67
2023/10/22 10:01:15;;;;;;;0.00;0.00;;;;;;;20.82;59.17;100620.16;5075298;28;20555;-67
2023/10/22 10:03:41;;;;;;;0.00;0.00;;;;;;;21.28;57.24;100623.78;5074107;28;20491;-67
2023/10/22 10:06:08;;;;;;;0.10;0.10;;;;;;;21.60;56.75;100629.06;5089820;28;20024;-67
2023/10/22 10:08:40;;;;;;;0.00;0.00;;;;;;;20.34;58.44;100627.22;5107466;28;20065;-67
2023/10/22 10:11:08;;;;;;;0.00;0.00;;;;;;;20.57;59.36;100622.47;5073753;28;20028;-67
2023/10/22 10:13:35;;;;;;;0.00;0.00;;;;;;;19.45;60.68;100636.22;5074210;28;20028;-67
2023/10/22 10:16:03;;;;;;;0.00;0.00;;;;;;;20.13;59.79;100643.34;5073985;28;20024;-66
2023/10/22 10:19:09;;;;;;;0.00;0.00;;;;;;;19.44;60.87;100647.75;5090962;28;20073;-67
2023/10/22 10:21:34;;;;;;;1.45;0.50;;;;;;;19.43;58.94;100650.47;5073605;28;20051;-67
2023/10/22 10:24:19;;;;;;;0.00;0.00;;;;;;;19.35;58.54;100650.84;5074704;28;20059;-67
2023/10/22 10:26:46;;;;;;;0.00;0.00;;;;;;;19.30;58.78;100650.22;5080411;28;20505;-67
2023/10/22 10:29:15;;;;;;;6.00;1.20;;;;;;;20.51;56.13;100650.19;5098749;28;20479;-67
2023/10/22 10:31:45;;;;;;;1.55;1.05;;;;;;;20.39;54.85;100654.38;5087887;28;20058;-67
2023/10/22 10:34:21;;;;;;;1.00;0.90;;;;;;;20.52;57.32;100665.16;5072856;28;20038;-67
2023/10/22 10:36:48;;;;;;;1.80;1.10;;;;;;;20.32;57.30;100663.63;5091839;28;20428;-67
2023/10/22 10:39:43;;;;;;;2.33;1.05;;;;;;;20.24;55.33;100660.50;5072281;28;20024;-67
2023/10/22 10:42:09;;;;;;;0.88;0.80;;;;;;;21.26;52.04;100670.88;5095926;28;20040;-67
2023/10/22 10:45:03;;;;;;;2.95;0.90;;;;;;;20.51;54.76;100677.59;5071806;28;20039;-67
2023/10/22 10:47:39;;;;;;;0.77;0.65;;;;;;;21.13;52.73;100676.88;5080733;28;20032;-67
2023/10/22 10:50:12;;;;;;;2.30;0.60;;;;;;;21.27;52.23;100669.94;5074045;28;20118;-67
2023/10/22 10:52:37;;;;;;;0.70;0.68;;;;;;;21.85;50.52;100671.00;5078770;28;20500;-67
2023/10/22 10:55:15;;;;;;;2.25;0.70;;;;;;;21.08;51.04;100686.91;5078989;28;20051;-67
2023/10/22 10:57:46;;;;;;;0.98;0.52;;;;;;;20.94;51.84;100678.88;5099184;28;20483;-67
2023/10/22 11:00:20;;;;;;;1.30;0.82;;;;;;;21.57;51.63;100682.41;5089422;28;20089;-67
2023/10/22 11:02:47;;;;;;;0.80;0.60;;;;;;;21.19;49.83;100678.34;5080735;28;20107;-67
2023/10/22 11:05:14;;;;;;;1.27;0.70;;;;;;;21.13;50.69;100676.00;5074194;28;20177;-67
2023/10/22 11:07:43;;;;;;;1.13;0.70;;;;;;;20.65;50.15;100681.31;5090384;28;20024;-67
2023/10/22 11:10:16;;;;;;;2.90;0.57;;;;;;;21.56;49.25;100681.56;5090275;28;20027;-67
2023/10/22 11:12:44;;;;;;;1.75;0.88;;;;;;;22.15;47.74;100673.59;5084922;28;20027;-67
2023/10/22 11:15:11;;;;;;;1.75;0.60;;;;;;;22.60;46.94;100676.19;5067980;28;20020;-67
2023/10/22 11:17:38;;;;;;;3.00;1.05;;;;;;;21.39;48.73;100685.16;5074601;28;20576;-67
2023/10/22 11:20:04;;;;;;;2.42;0.63;;;;;;;20.88;49.67;100679.19;5093378;28;20395;-69
2023/10/22 11:22:30;;;;;;;2.70;0.70;;;;;;;20.92;49.71;100686.06;5079820;28;20019;-69
2023/10/22 11:24:58;;;;;;;1.75;0.57;;;;;;;21.63;48.17;100692.69;5092811;28;20019;-67